Time;durP1;ratioP1;P1;durP2;ratioP2;P2;SDS_P1;SDS_P2;PMS_P1;PMS_P2;Temp;Humidity;BMP_temperature;BMP_pressure;BME280_temperature;BME280_humidity;BME280_pressure;Samples;Min_cycle;Max_cycle;Signal;HPM_P1;HPM_P2
2020/12/12 00:00:37;;;;;;;15.03;7.58;;;;;;;0.59;65.15;100728.14;1725243;82;21237;-58
2020/12/12 00:03:05;;;;;;;15.88;8.70;;;;;;;0.57;65.16;100725.60;1725901;80;21212;-58
2020/12/12 00:05:32;;;;;;;15.28;7.08;;;;;;;0.57;65.20;100725.60;1724064;82;21215;-58
2020/12/12 00:08:03;;;;;;;15.25;7.85;;;;;;;0.57;65.27;100729.94;1724483;82;21204;-58
2020/12/12 00:10:32;;;;;;;13.20;7.78;;;;;;;0.55;65.32;100729.56;1724021;82;21243;-58
2020/12/12 00:13:00;;;;;;;14.43;7.67;;;;;;;0.54;65.34;100723.98;1724636;81;21941;-58
2020/12/12 00:15:28;;;;;;;15.72;8.50;;;;;;;0.53;65.41;100720.14;1725374;82;21218;-58
2020/12/12 00:17:56;;;;;;;11.88;7.28;;;;;;;0.54;65.49;100728.31;1725156;82;21875;-58
2020/12/12 00:20:23;;;;;;;14.95;8.38;;;;;;;0.55;65.55;100726.11;1726415;82;21655;-58
2020/12/12 00:22:51;;;;;;;11.68;7.50;;;;;;;0.62;65.47;100720.28;1726690;82;21449;-58
2020/12/12 00:25:20;;;;;;;14.93;7.95;;;;;;;0.65;65.46;100716.30;1724385;82;21219;-58
2020/12/12 00:27:47;;;;;;;14.20;6.97;;;;;;;0.68;65.36;100714.91;1725482;82;21199;-58
2020/12/12 00:30:16;;;;;;;13.00;6.78;;;;;;;0.68;65.32;100718.33;1725343;82;21259;-58
2020/12/12 00:32:43;;;;;;;13.50;8.15;;;;;;;0.72;65.32;100716.05;1725156;82;21266;-58
2020/12/12 00:35:12;;;;;;;13.95;7.90;;;;;;;0.73;65.29;100706.53;1725440;82;22517;-58
2020/12/12 00:37:40;;;;;;;14.23;8.03;;;;;;;0.74;65.32;100701.75;1724932;82;21938;-57
2020/12/12 00:40:08;;;;;;;22.85;8.03;;;;;;;0.74;65.43;100711.66;1724253;82;22460;-57
2020/12/12 00:42:35;;;;;;;13.60;7.62;;;;;;;0.76;65.39;100699.95;1724483;82;21184;-58
2020/12/12 00:45:04;;;;;;;15.85;8.73;;;;;;;0.76;65.42;100696.06;1714556;82;21180;-58
2020/12/12 00:47:31;;;;;;;13.48;8.65;;;;;;;0.77;65.39;100691.72;1711913;82;21279;-58
2020/12/12 00:49:59;;;;;;;18.12;8.65;;;;;;;0.75;65.34;100687.89;1710889;82;21196;-57
2020/12/12 00:52:26;;;;;;;16.35;8.70;;;;;;;0.72;65.50;100695.33;1711128;82;21193;-58
2020/12/12 00:54:54;;;;;;;14.13;7.53;;;;;;;0.72;65.56;100687.98;1711341;82;22583;-58
2020/12/12 00:57:21;;;;;;;17.67;8.78;;;;;;;0.70;65.64;100693.22;1711668;82;21203;-58
2020/12/12 00:59:49;;;;;;;16.42;7.60;;;;;;;0.74;65.64;100693.98;1710452;82;21275;-57
2020/12/12 01:02:17;;;;;;;15.75;8.55;;;;;;;0.76;65.67;100691.31;1711486;82;21807;-58
2020/12/12 01:04:44;;;;;;;20.02;8.13;;;;;;;0.78;65.69;100689.08;1712460;82;21699;-57
2020/12/12 01:07:12;;;;;;;14.87;8.30;;;;;;;0.77;65.73;100695.14;1711714;82;21628;-57
2020/12/12 01:09:40;;;;;;;18.80;9.90;;;;;;;0.82;65.65;100694.53;1711790;82;21161;-57
2020/12/12 01:12:08;;;;;;;14.35;8.23;;;;;;;0.82;65.58;100690.66;1712115;82;21393;-58
2020/12/12 01:14:35;;;;;;;16.55;8.53;;;;;;;0.83;65.59;100688.93;1712642;82;21196;-58
2020/12/12 01:17:03;;;;;;;15.60;8.15;;;;;;;0.85;65.50;100690.55;1711103;82;21636;-58
2020/12/12 01:19:32;;;;;;;11.78;6.80;;;;;;;0.86;65.42;100687.08;1712044;82;21633;-58
2020/12/12 01:22:00;;;;;;;14.55;7.62;;;;;;;0.86;65.37;100684.94;1711599;82;21173;-58
2020/12/12 01:24:28;;;;;;;22.82;9.90;;;;;;;0.84;65.43;100687.58;1712746;82;21273;-58
2020/12/12 01:26:56;;;;;;;15.75;8.95;;;;;;;0.79;65.48;100686.90;1711556;82;21204;-58
2020/12/12 01:29:24;;;;;;;17.15;7.72;;;;;;;0.76;65.49;100683.11;1711291;82;21790;-58
2020/12/12 01:31:51;;;;;;;17.77;8.88;;;;;;;0.77;65.48;100686.08;1710498;82;21168;-58
2020/12/12 01:34:19;;;;;;;14.25;7.62;;;;;;;0.76;65.55;100681.81;1713577;82;21585;-58
2020/12/12 01:36:48;;;;;;;13.98;7.85;;;;;;;0.80;65.47;100682.09;1712159;82;21271;-58
2020/12/12 01:39:15;;;;;;;15.78;7.67;;;;;;;0.79;65.54;100689.92;1711170;82;21200;-58
2020/12/12 01:41:43;;;;;;;15.45;8.78;;;;;;;0.80;65.48;100686.44;1711009;82;21181;-58
2020/12/12 01:44:10;;;;;;;14.68;8.40;;;;;;;0.79;65.57;100686.90;1713797;82;21191;-58
2020/12/12 01:46:38;;;;;;;16.52;8.73;;;;;;;0.82;65.51;100693.24;1718032;82;21184;-58
2020/12/12 01:49:06;;;;;;;14.03;8.60;;;;;;;0.83;65.45;100692.36;1719520;82;21257;-58
2020/12/12 01:51:34;;;;;;;18.35;9.13;;;;;;;0.87;65.34;100684.86;1718782;82;21196;-58
2020/12/12 01:54:01;;;;;;;14.33;8.33;;;;;;;0.87;65.28;100680.97;1719488;82;21180;-58
2020/12/12 01:56:29;;;;;;;12.30;7.72;;;;;;;0.89;65.20;100675.73;1718764;82;21185;-58
2020/12/12 01:58:59;;;;;;;14.80;8.55;;;;;;;0.87;65.20;100682.27;1716139;82;21161;-58
2020/12/12 02:01:28;;;;;;;16.25;8.63;;;;;;;0.87;65.18;100683.56;1718721;82;21258;-58
2020/12/12 02:03:56;;;;;;;18.05;9.15;;;;;;;0.87;65.25;100678.84;1697425;82;22499;-59
2020/12/12 02:06:24;;;;;;;12.40;8.05;;;;;;;0.83;65.15;100679.86;1716961;82;21188;-58
2020/12/12 02:08:52;;;;;;;19.15;8.88;;;;;;;0.82;65.12;100676.41;1718618;82;21435;-59
2020/12/12 02:11:20;;;;;;;15.60;8.95;;;;;;;0.81;65.21;100674.73;1720464;81;21097;-59
2020/12/12 02:13:48;;;;;;;16.80;7.50;;;;;;;0.82;65.31;100676.86;1719316;82;22341;-59
2020/12/12 02:16:17;;;;;;;16.10;8.48;;;;;;;0.82;65.30;100679.45;1718428;82;21208;-59
2020/12/12 02:18:45;;;;;;;12.10;7.17;;;;;;;0.81;65.33;100682.93;1719258;82;21235;-59
2020/12/12 02:21:14;;;;;;;18.87;8.58;;;;;;;0.80;65.33;100670.44;1718264;82;21177;-59
2020/12/12 02:23:41;;;;;;;13.35;7.55;;;;;;;0.85;65.32;100675.00;1718394;82;21180;-59
2020/12/12 02:26:09;;;;;;;15.35;8.05;;;;;;;0.84;65.31;100673.34;1717533;82;23603;-58
2020/12/12 02:31:27;;;;;;;16.75;7.65;;;;;;;0.92;65.00;100667.44;1797335;77;23645;-58
2020/12/12 02:33:57;;;;;;;14.38;8.03;;;;;;;0.93;64.91;100672.16;1768931;80;21631;-58
2020/12/12 02:36:25;;;;;;;18.50;8.90;;;;;;;0.92;64.89;100666.14;1768275;79;21711;-58
2020/12/12 02:38:54;;;;;;;13.98;8.20;;;;;;;0.89;64.64;100669.27;1764892;80;21849;-58
2020/12/12 02:41:24;;;;;;;15.58;8.68;;;;;;;0.85;64.76;100675.00;1765680;79;21885;-58
2020/12/12 02:43:53;;;;;;;15.93;8.78;;;;;;;0.82;64.83;100667.34;1767066;80;21143;-58
2020/12/12 02:46:22;;;;;;;17.82;8.63;;;;;;;0.83;64.86;100665.16;1765636;80;21213;-58
2020/12/12 02:48:51;;;;;;;12.37;8.25;;;;;;;0.80;64.68;100660.53;1769862;80;21348;-59
2020/12/12 02:51:18;;;;;;;20.10;9.15;;;;;;;0.81;64.61;100656.59;1768038;80;21140;-58
2020/12/12 02:53:45;;;;;;;13.38;7.70;;;;;;;0.79;64.55;100658.41;1766662;80;21120;-58
2020/12/12 02:56:19;;;;;;;15.70;7.90;;;;;;;0.77;64.58;100658.88;1768015;80;21128;-58
2020/12/12 02:58:47;;;;;;;15.85;8.85;;;;;;;0.74;64.41;100663.73;1768857;78;21113;-58
2020/12/12 03:01:18;;;;;;;16.05;8.08;;;;;;;0.70;64.38;100661.30;1768061;80;21662;-58
2020/12/12 03:03:47;;;;;;;15.10;8.33;;;;;;;0.68;64.34;100660.52;1764203;79;21156;-58
2020/12/12 03:06:16;;;;;;;19.00;9.33;;;;;;;0.66;64.34;100663.16;1767629;80;21084;-58
2020/12/12 03:08:43;;;;;;;15.65;8.73;;;;;;;0.67;64.35;100661.40;1768573;80;21673;-58
2020/12/12 03:11:11;;;;;;;17.45;8.45;;;;;;;0.65;64.34;100658.02;1768112;79;21215;-58
2020/12/12 03:13:38;;;;;;;18.00;8.98;;;;;;;0.60;64.48;100662.06;1769567;80;21220;-58
2020/12/12 03:16:05;;;;;;;14.07;8.10;;;;;;;0.63;64.55;100668.44;1768209;80;21568;-58
2020/12/12 03:18:35;;;;;;;14.95;8.55;;;;;;;0.62;64.46;100660.71;1766276;79;21517;-58
2020/12/12 03:21:02;;;;;;;16.25;8.68;;;;;;;0.57;64.34;100659.56;1769345;80;21171;-58
2020/12/12 03:23:31;;;;;;;16.17;8.80;;;;;;;0.58;64.21;100664.32;1767392;80;21690;-58
2020/12/12 03:25:59;;;;;;;20.90;8.20;;;;;;;0.52;64.29;100658.45;1767647;79;21886;-58
2020/12/12 03:28:26;;;;;;;15.80;8.83;;;;;;;0.54;64.30;100658.41;1765617;80;21115;-58
2020/12/12 03:30:54;;;;;;;17.00;8.55;;;;;;;0.51;64.38;100663.68;1755544;80;21207;-58
2020/12/12 03:33:22;;;;;;;12.40;8.13;;;;;;;0.51;64.50;100664.97;1755398;79;21196;-58
2020/12/12 03:35:50;;;;;;;16.40;9.03;;;;;;;0.51;64.42;100664.97;1753850;79;22291;-58
2020/12/12 03:38:18;;;;;;;13.55;8.43;;;;;;;0.50;64.47;100664.56;1751403;79;22066;-59
2020/12/12 03:40:45;;;;;;;15.32;6.92;;;;;;;0.50;64.48;100664.11;1752597;80;21463;-59
2020/12/12 03:43:13;;;;;;;16.65;8.53;;;;;;;0.47;64.51;100664.23;1754538;80;21185;-58
2020/12/12 03:45:40;;;;;;;15.65;8.20;;;;;;;0.51;64.50;100666.27;1753184;80;21695;-59
2020/12/12 03:48:08;;;;;;;17.82;8.23;;;;;;;0.50;64.33;100674.47;1754027;79;21243;-59
2020/12/12 03:50:36;;;;;;;18.07;8.35;;;;;;;0.49;64.30;100674.09;1751072;79;22204;-59
2020/12/12 03:53:03;;;;;;;16.50;8.95;;;;;;;0.49;64.44;100675.38;1715002;81;21201;-59
2020/12/12 03:55:31;;;;;;;11.83;8.10;;;;;;;0.49;64.17;100672.79;1752378;80;21613;-59
2020/12/12 03:57:58;;;;;;;15.23;7.62;;;;;;;0.50;64.18;100674.92;1755462;80;22318;-59
2020/12/12 04:00:26;;;;;;;16.15;8.05;;;;;;;0.45;63.98;100666.01;1753999;80;21164;-59
2020/12/12 04:02:53;;;;;;;15.98;9.23;;;;;;;0.41;64.12;100672.20;1756402;79;21969;-59
2020/12/12 04:05:21;;;;;;;12.90;7.83;;;;;;;0.41;64.19;100672.20;1752970;80;21212;-59
2020/12/12 04:07:49;;;;;;;16.05;8.60;;;;;;;0.47;64.08;100673.73;1753406;79;21193;-59
2020/12/12 04:10:17;;;;;;;13.45;8.03;;;;;;;0.43;64.11;100671.69;1749848;80;21176;-59
2020/12/12 04:12:44;;;;;;;14.35;8.58;;;;;;;0.45;64.17;100668.59;1753370;79;21618;-59
2020/12/12 04:15:13;;;;;;;16.25;8.08;;;;;;;0.44;64.10;100666.92;1752506;79;21467;-59
2020/12/12 04:17:40;;;;;;;14.60;8.13;;;;;;;0.45;64.00;100672.94;1753523;80;21534;-59
2020/12/12 04:20:08;;;;;;;15.25;9.25;;;;;;;0.46;64.03;100670.76;1751523;79;21145;-59
2020/12/12 04:22:35;;;;;;;28.60;11.00;;;;;;;0.44;63.95;100662.17;1751854;80;22072;-59
2020/12/12 04:25:03;;;;;;;14.73;8.73;;;;;;;0.39;63.81;100666.23;1751425;79;21184;-59
2020/12/12 04:27:31;;;;;;;14.40;7.78;;;;;;;0.35;63.76;100670.67;1751249;80;22136;-59
2020/12/12 04:29:59;;;;;;;19.60;8.93;;;;;;;0.34;63.77;100659.91;1750151;80;21656;-59
2020/12/12 04:32:27;;;;;;;15.15;8.73;;;;;;;0.35;63.66;100663.33;1762476;80;21189;-59
2020/12/12 04:34:55;;;;;;;14.30;9.03;;;;;;;0.34;63.52;100659.91;1762537;79;22367;-59
2020/12/12 04:37:22;;;;;;;13.53;7.87;;;;;;;0.34;63.58;100662.50;1758925;79;21517;-59
2020/12/12 04:39:51;;;;;;;15.05;8.70;;;;;;;0.28;63.39;100661.39;1760162;80;21185;-59
2020/12/12 04:42:19;;;;;;;12.82;7.20;;;;;;;0.22;63.28;100660.75;1725254;81;21518;-59
2020/12/12 04:44:47;;;;;;;18.75;8.85;;;;;;;0.17;63.48;100665.64;1760753;80;21193;-60
2020/12/12 04:47:14;;;;;;;14.95;8.33;;;;;;;0.15;63.27;100653.63;1761462;79;21183;-59
2020/12/12 04:49:42;;;;;;;16.70;8.68;;;;;;;0.13;63.36;100658.02;1760884;80;21112;-59
2020/12/12 04:52:10;;;;;;;12.73;7.35;;;;;;;0.13;63.17;100656.72;1740609;80;21568;-59
2020/12/12 04:54:38;;;;;;;16.00;9.25;;;;;;;0.08;62.97;100651.69;1726111;81;21184;-59
2020/12/12 04:57:06;;;;;;;14.75;8.33;;;;;;;0.03;62.75;100655.33;1761242;80;21659;-59
2020/12/12 04:59:34;;;;;;;13.43;6.55;;;;;;;-0.07;62.99;100652.19;1761518;79;21172;-59
2020/12/12 05:02:03;;;;;;;12.88;7.40;;;;;;;-0.11;62.92;100651.44;1761435;79;21557;-59
2020/12/12 05:04:31;;;;;;;15.40;7.15;;;;;;;-0.10;62.83;100647.09;1762476;80;21392;-59
2020/12/12 05:06:59;;;;;;;14.53;7.75;;;;;;;-0.14;63.06;100645.06;1759741;80;21924;-59
2020/12/12 05:09:27;;;;;;;14.00;6.70;;;;;;;-0.13;63.07;100640.76;1759749;79;21676;-58
2020/12/12 05:11:55;;;;;;;14.95;7.33;;;;;;;-0.13;63.13;100639.46;1762139;80;21700;-58
2020/12/12 05:14:23;;;;;;;14.50;6.97;;;;;;;-0.14;62.93;100640.34;1761210;80;21160;-58
2020/12/12 05:16:54;;;;;;;11.83;7.35;;;;;;;-0.19;62.96;100641.31;1758421;80;21571;-59
2020/12/12 05:19:21;;;;;;;14.35;8.28;;;;;;;-0.21;62.98;100639.23;1762274;79;21160;-59
2020/12/12 05:21:50;;;;;;;13.40;6.85;;;;;;;-0.20;62.99;100645.28;1761215;79;21172;-59
2020/12/12 05:24:18;;;;;;;16.45;8.48;;;;;;;-0.20;63.16;100635.77;1760929;79;21147;-59
2020/12/12 05:26:46;;;;;;;13.28;6.10;;;;;;;-0.13;62.95;100640.76;1763128;80;21196;-58
2020/12/12 05:29:15;;;;;;;11.63;7.03;;;;;;;-0.17;62.90;100632.67;1759595;79;22238;-58
2020/12/12 05:31:43;;;;;;;16.52;8.13;;;;;;;-0.19;62.90;100633.56;1755928;80;21227;-58
2020/12/12 05:34:14;;;;;;;14.65;7.85;;;;;;;-0.15;63.10;100636.05;1751748;79;21216;-58
2020/12/12 05:36:44;;;;;;;15.90;8.40;;;;;;;-0.19;62.94;100636.14;1750553;80;21238;-58
2020/12/12 05:39:13;;;;;;;14.63;7.53;;;;;;;-0.19;63.10;100634.02;1753655;79;22047;-57
2020/12/12 05:41:42;;;;;;;16.27;7.70;;;;;;;-0.17;63.23;100636.55;1752821;79;21680;-58
2020/12/12 05:44:10;;;;;;;11.43;7.78;;;;;;;-0.13;63.02;100642.05;1752784;79;21212;-58
2020/12/12 05:46:38;;;;;;;14.35;8.78;;;;;;;-0.12;62.68;100646.31;1718527;80;21133;-60
2020/12/12 05:49:06;;;;;;;14.93;7.28;;;;;;;-0.14;62.61;100641.18;1755225;79;21707;-58
2020/12/12 05:51:33;;;;;;;17.65;7.50;;;;;;;-0.14;62.40;100638.59;1752656;79;21203;-58
2020/12/12 05:54:01;;;;;;;15.38;7.65;;;;;;;-0.21;62.35;100630.19;1753608;79;22232;-59
2020/12/12 05:56:31;;;;;;;15.03;6.97;;;;;;;-0.24;62.50;100638.03;1751780;79;21735;-59
2020/12/12 05:58:59;;;;;;;14.40;8.85;;;;;;;-0.25;62.71;100635.06;1727347;79;21189;-59
2020/12/12 06:01:30;;;;;;;14.83;8.13;;;;;;;-0.19;62.61;100636.60;1751957;79;21601;-60
2020/12/12 06:04:11;;;;;;;12.95;7.25;;;;;;;-0.15;62.80;100629.59;1749341;79;21196;-59
2020/12/12 06:09:38;;;;;;;19.00;10.75;;;;;;;-0.12;62.67;100636.80;1850332;74;27882;-58
2020/12/12 06:12:06;;;;;;;12.55;7.33;;;;;;;0.04;62.56;100641.05;1816356;76;21104;-57
2020/12/12 06:14:38;;;;;;;17.27;8.33;;;;;;;0.23;61.77;100630.10;1774135;75;21263;-59
2020/12/12 06:17:10;;;;;;;10.78;7.08;;;;;;;0.18;61.82;100631.53;1779119;80;21563;-59
2020/12/12 06:19:39;;;;;;;15.70;8.38;;;;;;;0.12;61.64;100628.72;1788694;78;21163;-58
2020/12/12 06:22:13;;;;;;;16.32;8.00;;;;;;;0.06;61.68;100628.91;1788536;78;21175;-58
2020/12/12 06:24:40;;;;;;;16.27;8.38;;;;;;;0.01;61.68;100634.67;1781163;78;21653;-58
2020/12/12 06:27:12;;;;;;;13.25;7.33;;;;;;;-0.05;61.83;100642.62;1727690;78;21431;-58
2020/12/12 06:29:44;;;;;;;12.40;7.58;;;;;;;-0.10;61.92;100637.63;1786069;78;21622;-59
2020/12/12 06:32:19;;;;;;;14.23;7.35;;;;;;;-0.12;61.95;100635.50;1807500;78;21140;-58
2020/12/12 06:34:52;;;;;;;12.25;7.22;;;;;;;-0.15;62.21;100642.09;1764945;79;21207;-58
2020/12/12 06:37:35;;;;;;;17.98;8.15;;;;;;;-0.16;62.38;100635.67;1787893;78;21768;-58
2020/12/12 06:40:07;;;;;;;16.57;7.85;;;;;;;-0.15;62.28;100636.92;1763433;79;21236;-59
2020/12/12 06:42:55;;;;;;;14.93;6.90;;;;;;;-0.11;62.47;100636.38;1796283;77;23223;-58
2020/12/12 06:45:30;;;;;;;15.08;8.48;;;;;;;-0.11;62.51;100639.80;1765974;80;21208;-58
2020/12/12 06:47:59;;;;;;;13.68;7.75;;;;;;;-0.07;62.51;100639.25;1765636;79;22043;-60
2020/12/12 06:50:36;;;;;;;15.20;7.40;;;;;;;-0.06;62.49;100633.19;1764923;79;21128;-60
2020/12/12 06:53:17;;;;;;;13.05;6.97;;;;;;;-0.03;62.28;100631.80;1765960;79;28516;-59
2020/12/12 06:55:45;;;;;;;15.93;7.95;;;;;;;0.00;62.30;100627.83;1767516;80;21829;-59
2020/12/12 07:01:29;;;;;;;12.85;7.70;;;;;;;0.06;62.37;100617.27;1794731;77;22615;-59
2020/12/12 07:04:06;;;;;;;13.78;6.78;;;;;;;0.06;62.33;100620.30;1799181;77;21880;-58
2020/12/12 07:06:34;;;;;;;12.13;7.00;;;;;;;0.02;62.42;100611.80;1799981;77;21188;-59
2020/12/12 07:09:09;;;;;;;15.50;6.78;;;;;;;0.03;62.50;100618.65;1734730;80;21166;-59
2020/12/12 07:11:37;;;;;;;12.82;8.03;;;;;;;0.04;62.45;100608.71;1733171;80;21651;-58
2020/12/12 07:14:05;;;;;;;13.38;8.08;;;;;;;0.09;62.57;100615.88;1736380;81;21487;-58
2020/12/12 07:16:32;;;;;;;14.47;7.92;;;;;;;0.10;62.57;100616.70;1761583;80;21199;-59
2020/12/12 07:19:00;;;;;;;12.73;6.97;;;;;;;0.12;62.62;100614.48;1713395;80;21330;-58
2020/12/12 07:21:27;;;;;;;12.68;6.70;;;;;;;0.15;62.60;100610.50;1716044;81;21207;-58
2020/12/12 07:23:55;;;;;;;13.48;7.45;;;;;;;0.14;62.47;100616.56;1709815;81;21758;-58
2020/12/12 07:26:22;;;;;;;11.80;6.87;;;;;;;0.22;62.46;100612.87;1709787;81;21698;-58
2020/12/12 07:28:50;;;;;;;11.45;6.65;;;;;;;0.22;62.37;100608.98;1707866;81;21156;-60
2020/12/12 07:31:17;;;;;;;15.32;7.15;;;;;;;0.26;62.13;100602.83;1709450;81;21208;-58
2020/12/12 07:33:48;;;;;;;12.05;7.17;;;;;;;0.29;62.32;100601.44;1734818;80;21140;-58
2020/12/12 07:36:16;;;;;;;13.83;7.67;;;;;;;0.31;62.27;100603.52;1720924;81;21145;-58
2020/12/12 07:38:43;;;;;;;14.07;7.95;;;;;;;0.32;62.33;100605.19;1713348;81;21623;-58
2020/12/12 07:41:13;;;;;;;15.53;7.08;;;;;;;0.35;62.36;100602.50;1733668;80;21168;-58
2020/12/12 07:43:54;;;;;;;17.10;7.17;;;;;;;0.38;62.40;100598.52;1720519;81;21357;-58
2020/12/12 07:49:35;;;;;;;20.35;8.50;;;;;;;0.48;62.08;100598.59;1774160;77;22852;-58
2020/12/12 07:52:11;;;;;;;13.75;7.75;;;;;;;0.42;61.94;100607.02;1779894;78;21138;-59
2020/12/12 07:54:54;;;;;;;16.40;8.28;;;;;;;0.39;62.15;100606.69;1783062;78;21227;-59
2020/12/12 07:57:19;;;;;;;14.25;6.62;;;;;;;0.39;62.30;100609.28;1775631;79;21179;-58
2020/12/12 07:59:46;;;;;;;14.90;8.23;;;;;;;0.41;62.21;100606.64;1791454;78;22028;-58
2020/12/12 08:02:15;;;;;;;17.40;9.33;;;;;;;0.42;62.29;100604.00;1792881;78;21682;-58
2020/12/12 08:04:45;;;;;;;14.93;8.95;;;;;;;0.46;62.16;100599.10;1790344;78;21631;-58
2020/12/12 08:07:22;;;;;;;10.75;6.67;;;;;;;0.49;62.05;100599.00;1792924;78;22161;-58
2020/12/12 08:09:55;;;;;;;14.35;7.87;;;;;;;0.49;62.17;100597.70;1769289;79;21171;-58
2020/12/12 08:12:33;;;;;;;14.07;8.70;;;;;;;0.46;62.04;100604.28;1806475;77;21747;-58
2020/12/12 08:18:14;;;;;;;14.98;8.00;;;;;;;0.41;62.34;100599.71;1869472;74;22664;-58
2020/12/12 08:20:45;;;;;;;19.20;9.78;;;;;;;0.38;62.56;100610.16;1850441;75;21112;-58
2020/12/12 08:23:18;;;;;;;18.00;9.05;;;;;;;0.36;62.52;100602.45;1849526;75;21280;-58
2020/12/12 08:25:45;;;;;;;16.30;8.45;;;;;;;0.34;62.41;100602.95;1850324;75;21209;-58
2020/12/12 08:28:13;;;;;;;15.45;8.55;;;;;;;0.36;62.60;100601.61;1848850;75;21627;-58
2020/12/12 08:30:40;;;;;;;14.68;7.53;;;;;;;0.35;62.66;100603.80;1779286;78;21776;-60
2020/12/12 08:33:12;;;;;;;16.30;8.10;;;;;;;0.34;62.70;100612.02;1805641;78;21251;-58
2020/12/12 08:35:41;;;;;;;16.20;9.43;;;;;;;0.35;62.78;100607.25;1771790;78;22169;-58
2020/12/12 08:38:13;;;;;;;18.42;9.25;;;;;;;0.33;63.00;100606.44;1775761;78;21188;-59
2020/12/12 08:40:49;;;;;;;17.30;8.28;;;;;;;0.37;63.09;100598.14;1775726;78;21148;-59
2020/12/12 08:43:25;;;;;;;16.60;8.85;;;;;;;0.38;63.01;100596.39;1776151;79;21539;-59
2020/12/12 08:45:59;;;;;;;17.90;9.48;;;;;;;0.38;62.98;100592.05;1749996;79;21863;-59
2020/12/12 08:48:38;;;;;;;14.85;8.50;;;;;;;0.39;63.18;100594.17;1778516;79;21638;-58
2020/12/12 08:51:10;;;;;;;15.68;9.18;;;;;;;0.40;63.18;100593.29;1778848;78;21634;-58
2020/12/12 08:53:44;;;;;;;17.07;8.73;;;;;;;0.35;63.19;100586.54;1776516;78;21173;-59
2020/12/12 08:56:18;;;;;;;16.70;9.38;;;;;;;0.34;63.33;100587.88;1776451;79;21092;-58
2020/12/12 08:58:59;;;;;;;17.45;8.60;;;;;;;0.37;63.31;100589.08;1776271;78;21111;-58
2020/12/12 09:01:44;;;;;;;18.37;8.80;;;;;;;0.42;63.39;100585.02;1761816;78;21285;-59
2020/12/12 09:04:21;;;;;;;18.65;8.55;;;;;;;0.43;63.35;100586.72;1762387;78;21213;-59
2020/12/12 09:06:58;;;;;;;13.78;7.40;;;;;;;0.50;63.25;100590.31;1769516;80;21186;-59
2020/12/12 09:09:30;;;;;;;;;;;;;;;0.52;63.07;100582.06;1762503;78;21208;-59
2020/12/12 09:12:08;;;;;;;19.20;9.03;;;;;;;0.53;62.95;100575.14;1789467;78;20598;-59
2020/12/12 09:14:44;;;;;;;15.25;7.50;;;;;;;0.47;62.95;100575.34;1791869;79;21493;-59
2020/12/12 09:17:15;;;;;;;16.35;8.63;;;;;;;0.43;63.01;100571.19;1780180;78;21239;-59
2020/12/12 09:19:42;;;;;;;16.12;7.90;;;;;;;0.40;63.17;100576.00;1750016;79;21187;-59
2020/12/12 09:22:12;;;;;;;16.07;8.73;;;;;;;0.40;63.19;100575.17;1809794;78;21169;-59
2020/12/12 09:24:39;;;;;;;17.57;8.20;;;;;;;0.43;63.09;100570.72;1806653;78;21761;-59
2020/12/12 09:27:09;;;;;;;14.58;8.63;;;;;;;0.47;63.00;100571.03;1809583;78;21289;-59
2020/12/12 09:29:38;;;;;;;16.30;6.67;;;;;;;0.48;63.08;100563.64;1807688;78;21632;-59
2020/12/12 09:32:06;;;;;;;18.67;8.13;;;;;;;0.53;63.15;100563.48;1807593;77;21207;-59
2020/12/12 09:34:37;;;;;;;15.75;8.83;;;;;;;0.55;63.09;100556.07;1808247;77;21689;-59
2020/12/12 09:37:04;;;;;;;16.35;7.78;;;;;;;0.64;63.01;100555.31;1808671;78;21610;-59
2020/12/12 09:39:31;;;;;;;23.50;9.98;;;;;;;0.66;63.11;100551.79;1806955;78;21204;-59
2020/12/12 09:41:59;;;;;;;17.37;7.55;;;;;;;0.70;62.87;100547.34;1772245;80;21744;-59
2020/12/12 09:44:27;;;;;;;16.30;8.95;;;;;;;0.71;62.95;100541.27;1751450;79;21206;-59
2020/12/12 09:46:56;;;;;;;20.82;8.78;;;;;;;0.78;62.87;100535.41;1807711;78;21206;-59
2020/12/12 09:49:24;;;;;;;15.50;8.98;;;;;;;0.79;62.95;100539.24;1807785;78;21152;-59
2020/12/12 09:51:51;;;;;;;16.95;8.28;;;;;;;0.84;62.77;100533.44;1807979;77;22155;-58
2020/12/12 09:54:18;;;;;;;16.32;7.70;;;;;;;0.83;62.58;100529.15;1771423;78;21199;-59
2020/12/12 09:56:49;;;;;;;18.35;8.23;;;;;;;0.86;62.73;100526.45;1755325;80;21713;-59
2020/12/12 09:59:17;;;;;;;15.70;8.40;;;;;;;0.89;62.75;100530.22;1774151;79;21161;-59
2020/12/12 10:01:47;;;;;;;14.70;7.25;;;;;;;0.93;62.59;100525.77;1760309;80;21190;-59
2020/12/12 10:04:14;;;;;;;18.82;7.20;;;;;;;0.92;62.54;100528.82;1729531;81;21210;-59
2020/12/12 10:06:43;;;;;;;17.23;7.30;;;;;;;0.88;62.43;100527.69;1808585;78;21516;-59
2020/12/12 10:09:10;;;;;;;14.70;8.65;;;;;;;0.83;62.33;100525.27;1805135;77;21152;-59
2020/12/12 10:11:38;;;;;;;17.20;9.65;;;;;;;0.80;62.44;100516.77;1808679;78;21108;-59
2020/12/12 10:14:06;;;;;;;18.37;9.90;;;;;;;0.76;62.58;100512.58;1808824;77;21676;-59
2020/12/12 10:16:33;;;;;;;17.52;8.30;;;;;;;0.72;62.83;100502.36;1806183;77;21410;-59
2020/12/12 10:19:02;;;;;;;17.00;7.92;;;;;;;0.77;62.64;100498.28;1813315;77;21255;-59
2020/12/12 10:21:30;;;;;;;18.87;9.95;;;;;;;0.75;62.69;100496.20;1746066;80;21186;-59
2020/12/12 10:23:57;;;;;;;16.42;8.15;;;;;;;0.74;62.76;100501.02;1752063;79;21184;-59
2020/12/12 10:26:25;;;;;;;13.50;7.95;;;;;;;0.68;62.46;100497.34;1812289;77;21183;-58
2020/12/12 10:28:53;;;;;;;15.50;8.20;;;;;;;0.65;62.60;100502.63;1814451;77;22499;-59
2020/12/12 10:31:21;;;;;;;16.67;8.03;;;;;;;0.62;62.68;100505.33;1812082;77;21179;-60
2020/12/12 10:33:49;;;;;;;14.03;8.30;;;;;;;0.59;62.57;100498.53;1814164;77;21136;-59
2020/12/12 10:36:18;;;;;;;16.80;7.95;;;;;;;0.55;62.42;100495.22;1811436;77;21250;-59
2020/12/12 10:38:46;;;;;;;16.97;9.40;;;;;;;0.50;62.49;100496.27;1809875;78;22351;-59
2020/12/12 10:41:13;;;;;;;14.05;8.65;;;;;;;0.45;62.29;100500.31;1811952;77;21207;-59
2020/12/12 10:43:41;;;;;;;28.27;10.15;;;;;;;0.35;62.59;100494.64;1811511;77;21184;-59
2020/12/12 10:46:08;;;;;;;16.05;8.75;;;;;;;0.31;62.96;100496.93;1811070;77;22287;-59
2020/12/12 10:48:36;;;;;;;14.85;7.97;;;;;;;0.32;62.98;100493.88;1811173;77;21203;-59
2020/12/12 10:51:04;;;;;;;14.03;7.95;;;;;;;0.34;62.92;100491.65;1811888;77;21717;-58
2020/12/12 10:53:32;;;;;;;17.92;8.23;;;;;;;0.38;62.89;100497.55;1811430;78;21207;-59
2020/12/12 10:55:59;;;;;;;16.80;7.50;;;;;;;0.40;62.76;100494.91;1812384;77;22016;-59
2020/12/12 10:58:27;;;;;;;21.93;8.35;;;;;;;0.40;62.72;100493.16;1813313;77;21151;-58
2020/12/12 11:00:55;;;;;;;16.55;8.43;;;;;;;0.36;62.80;100490.30;1814970;77;21123;-58
2020/12/12 11:03:22;;;;;;;17.27;9.00;;;;;;;0.31;62.90;100487.87;1815055;77;21174;-58
2020/12/12 11:05:51;;;;;;;14.38;8.98;;;;;;;0.24;63.17;100480.40;1813913;77;21365;-59
2020/12/12 11:08:18;;;;;;;23.12;8.35;;;;;;;0.21;63.29;100482.63;1812675;77;21548;-58
2020/12/12 11:10:46;;;;;;;18.17;9.20;;;;;;;0.22;63.54;100475.70;1813234;77;21210;-59
2020/12/12 11:13:13;;;;;;;17.82;8.08;;;;;;;0.29;63.54;100487.09;1813144;77;21199;-58
2020/12/12 11:15:42;;;;;;;16.37;9.65;;;;;;;0.33;63.34;100482.19;1811905;77;21195;-58
2020/12/12 11:18:11;;;;;;;15.78;9.65;;;;;;;0.34;63.03;100485.64;1824291;75;21365;-58
2020/12/12 11:20:39;;;;;;;15.13;9.35;;;;;;;0.34;63.04;100490.81;1830488;75;21195;-58
2020/12/12 11:23:06;;;;;;;19.05;9.30;;;;;;;0.33;63.03;100494.29;1831981;76;21164;-58
2020/12/12 11:25:34;;;;;;;16.37;9.23;;;;;;;0.29;63.20;100500.49;1829491;77;21148;-58
2020/12/12 11:28:01;;;;;;;16.93;8.05;;;;;;;0.25;63.21;100499.73;1832135;77;21570;-58
2020/12/12 11:30:30;;;;;;;15.18;8.45;;;;;;;0.17;63.34;100506.95;1831693;77;22170;-59
2020/12/12 11:32:57;;;;;;;15.63;8.20;;;;;;;0.12;63.71;100507.55;1768467;78;21763;-58
2020/12/12 11:48:53;;;;;;;23.55;10.88;;;;;;;0.09;64.09;100477.44;1758798;80;21155;-59
2020/12/12 11:51:24;;;;;;;16.07;8.25;;;;;;;0.12;63.73;100479.92;1759178;80;21599;-58
2020/12/12 11:53:53;;;;;;;19.77;10.10;;;;;;;0.14;63.69;100485.05;1758416;80;21163;-59
2020/12/12 11:56:24;;;;;;;18.50;10.55;;;;;;;0.11;63.76;100477.39;1758504;80;21239;-59
2020/12/12 11:58:51;;;;;;;17.52;10.18;;;;;;;0.11;63.95;100474.80;1756387;80;21159;-59
2020/12/12 12:01:26;;;;;;;19.05;8.35;;;;;;;0.14;63.93;100478.58;1759543;80;21187;-59